Terminal Aerodrome Forecast
Issued by NWS

Home | Current Version | Previous Version | Text Only | Print | Product List | Glossary On
Versions: 1 2 3 4 5 6 7 8 9 10 11 12 13 14 15 16 17 18 19 20 21 22 23 24 25 26 27 28
000
FTUS41 KBOX 272345
TAFBED
TAF
KBED 272345Z 2800/2824 21011G22KT P6SM SCT030 SCT200
     FM280100 21012KT P6SM VCSH BKN050 BKN100
     FM280200 21012KT P6SM BKN050 BKN100
     FM280600 22008KT P6SM BKN020 OVC100
     FM281400 22010G20KT P6SM SCT050
     FM281800 22011G25KT P6SM BKN050
     FM282300 26008KT P6SM BKN050=

USA.gov is the U.S. government's official web portal to all federal, state and local government web resources and services.